sensor_id;sensor_type;location;lat;lon;timestamp;P1;durP1;ratioP1;P2;durP2;ratioP2
15712;SDS011;7957;51.608;6.916;2023-03-21T00:00:37;15.07;;;10.63;;
15712;SDS011;7957;51.608;6.916;2023-03-21T00:03:04;17.07;;;10.43;;
15712;SDS011;7957;51.608;6.916;2023-03-21T00:05:32;14.70;;;10.13;;
15712;SDS011;7957;51.608;6.916;2023-03-21T00:07:59;18.33;;;11.40;;
15712;SDS011;7957;51.608;6.916;2023-03-21T00:10:26;15.63;;;11.30;;
15712;SDS011;7957;51.608;6.916;2023-03-21T00:12:54;16.87;;;10.80;;
15712;SDS011;7957;51.608;6.916;2023-03-21T00:15:22;18.87;;;11.83;;
15712;SDS011;7957;51.608;6.916;2023-03-21T00:17:53;17.20;;;11.53;;
15712;SDS011;7957;51.608;6.916;2023-03-21T00:20:22;21.80;;;11.97;;
15712;SDS011;7957;51.608;6.916;2023-03-21T00:22:49;16.77;;;11.50;;
15712;SDS011;7957;51.608;6.916;2023-03-21T00:25:17;15.70;;;11.33;;
15712;SDS011;7957;51.608;6.916;2023-03-21T00:27:43;17.37;;;10.87;;
15712;SDS011;7957;51.608;6.916;2023-03-21T00:30:12;16.17;;;10.63;;
15712;SDS011;7957;51.608;6.916;2023-03-21T00:32:40;15.87;;;11.33;;
15712;SDS011;7957;51.608;6.916;2023-03-21T00:35:07;15.73;;;10.57;;
15712;SDS011;7957;51.608;6.916;2023-03-21T00:37:35;15.37;;;10.80;;
15712;SDS011;7957;51.608;6.916;2023-03-21T00:40:02;13.87;;;10.67;;
15712;SDS011;7957;51.608;6.916;2023-03-21T00:42:33;16.87;;;10.97;;
15712;SDS011;7957;51.608;6.916;2023-03-21T00:45:00;13.97;;;10.13;;
15712;SDS011;7957;51.608;6.916;2023-03-21T00:47:29;15.47;;;10.33;;
15712;SDS011;7957;51.608;6.916;2023-03-21T00:49:55;16.23;;;10.73;;
15712;SDS011;7957;51.608;6.916;2023-03-21T00:52:22;16.30;;;10.40;;
15712;SDS011;7957;51.608;6.916;2023-03-21T00:54:49;15.03;;;9.50;;
15712;SDS011;7957;51.608;6.916;2023-03-21T00:57:17;16.33;;;10.43;;
15712;SDS011;7957;51.608;6.916;2023-03-21T00:59:44;16.87;;;10.63;;
15712;SDS011;7957;51.608;6.916;2023-03-21T01:02:10;17.47;;;10.50;;
15712;SDS011;7957;51.608;6.916;2023-03-21T01:04:48;18.27;;;11.07;;
15712;SDS011;7957;51.608;6.916;2023-03-21T01:07:14;18.60;;;10.13;;
15712;SDS011;7957;51.608;6.916;2023-03-21T01:09:41;17.13;;;10.67;;
15712;SDS011;7957;51.608;6.916;2023-03-21T01:12:08;12.57;;;9.00;;
15712;SDS011;7957;51.608;6.916;2023-03-21T01:14:35;16.90;;;10.80;;
15712;SDS011;7957;51.608;6.916;2023-03-21T01:17:03;15.63;;;10.13;;
15712;SDS011;7957;51.608;6.916;2023-03-21T01:19:30;14.47;;;10.03;;
15712;SDS011;7957;51.608;6.916;2023-03-21T01:21:59;15.60;;;10.33;;
15712;SDS011;7957;51.608;6.916;2023-03-21T01:24:26;17.87;;;10.87;;
15712;SDS011;7957;51.608;6.916;2023-03-21T01:26:53;14.93;;;9.73;;
15712;SDS011;7957;51.608;6.916;2023-03-21T01:29:20;18.37;;;10.20;;
15712;SDS011;7957;51.608;6.916;2023-03-21T01:31:47;17.63;;;10.93;;
15712;SDS011;7957;51.608;6.916;2023-03-21T01:34:14;15.63;;;9.40;;
15712;SDS011;7957;51.608;6.916;2023-03-21T01:36:42;15.10;;;10.33;;
15712;SDS011;7957;51.608;6.916;2023-03-21T01:39:10;18.33;;;10.37;;
15712;SDS011;7957;51.608;6.916;2023-03-21T01:41:38;15.73;;;10.23;;
15712;SDS011;7957;51.608;6.916;2023-03-21T01:44:08;18.97;;;10.50;;
15712;SDS011;7957;51.608;6.916;2023-03-21T01:46:40;16.60;;;9.67;;
15712;SDS011;7957;51.608;6.916;2023-03-21T01:49:11;15.20;;;10.07;;
15712;SDS011;7957;51.608;6.916;2023-03-21T01:51:42;13.33;;;9.07;;
15712;SDS011;7957;51.608;6.916;2023-03-21T01:54:15;15.50;;;9.73;;
15712;SDS011;7957;51.608;6.916;2023-03-21T01:56:49;19.47;;;10.07;;
15712;SDS011;7957;51.608;6.916;2023-03-21T01:59:19;14.10;;;9.77;;
15712;SDS011;7957;51.608;6.916;2023-03-21T02:01:50;16.50;;;10.67;;
15712;SDS011;7957;51.608;6.916;2023-03-21T02:04:18;18.93;;;10.37;;
15712;SDS011;7957;51.608;6.916;2023-03-21T02:06:53;15.30;;;9.40;;
15712;SDS011;7957;51.608;6.916;2023-03-21T02:09:27;13.37;;;8.93;;
15712;SDS011;7957;51.608;6.916;2023-03-21T02:11:57;14.97;;;9.50;;
15712;SDS011;7957;51.608;6.916;2023-03-21T02:14:29;14.63;;;9.53;;
15712;SDS011;7957;51.608;6.916;2023-03-21T02:17:01;15.57;;;9.27;;
15712;SDS011;7957;51.608;6.916;2023-03-21T02:28:43;14.60;;;9.77;;
15712;SDS011;7957;51.608;6.916;2023-03-21T02:31:17;13.47;;;8.83;;
15712;SDS011;7957;51.608;6.916;2023-03-21T02:36:59;16.17;;;9.73;;
15712;SDS011;7957;51.608;6.916;2023-03-21T02:39:33;12.30;;;8.70;;
15712;SDS011;7957;51.608;6.916;2023-03-21T02:42:09;13.80;;;9.20;;
15712;SDS011;7957;51.608;6.916;2023-03-21T02:44:43;14.80;;;8.73;;
15712;SDS011;7957;51.608;6.916;2023-03-21T02:47:17;12.57;;;8.50;;
15712;SDS011;7957;51.608;6.916;2023-03-21T02:49:49;14.40;;;8.87;;
15712;SDS011;7957;51.608;6.916;2023-03-21T02:52:22;13.30;;;9.27;;
15712;SDS011;7957;51.608;6.916;2023-03-21T02:54:51;14.07;;;9.23;;
15712;SDS011;7957;51.608;6.916;2023-03-21T02:57:20;18.03;;;9.80;;
15712;SDS011;7957;51.608;6.916;2023-03-21T02:59:47;15.63;;;9.87;;
15712;SDS011;7957;51.608;6.916;2023-03-21T03:02:15;16.37;;;9.90;;
15712;SDS011;7957;51.608;6.916;2023-03-21T03:04:47;18.50;;;10.87;;
15712;SDS011;7957;51.608;6.916;2023-03-21T03:07:19;14.07;;;9.97;;
15712;SDS011;7957;51.608;6.916;2023-03-21T03:13:06;15.07;;;9.83;;
15712;SDS011;7957;51.608;6.916;2023-03-21T03:15:46;13.33;;;9.87;;
15712;SDS011;7957;51.608;6.916;2023-03-21T03:18:24;15.03;;;10.80;;
15712;SDS011;7957;51.608;6.916;2023-03-21T03:20:59;14.57;;;10.63;;
15712;SDS011;7957;51.608;6.916;2023-03-21T03:23:35;16.63;;;11.67;;
15712;SDS011;7957;51.608;6.916;2023-03-21T03:26:08;15.70;;;11.33;;
15712;SDS011;7957;51.608;6.916;2023-03-21T03:28:40;15.07;;;11.33;;
15712;SDS011;7957;51.608;6.916;2023-03-21T03:31:10;13.70;;;10.63;;
15712;SDS011;7957;51.608;6.916;2023-03-21T03:33:42;14.50;;;11.60;;
15712;SDS011;7957;51.608;6.916;2023-03-21T03:36:12;17.33;;;11.50;;
15712;SDS011;7957;51.608;6.916;2023-03-21T03:38:42;18.63;;;12.67;;
15712;SDS011;7957;51.608;6.916;2023-03-21T03:41:15;16.77;;;12.20;;
15712;SDS011;7957;51.608;6.916;2023-03-21T03:43:47;14.03;;;11.53;;
15712;SDS011;7957;51.608;6.916;2023-03-21T03:46:18;15.40;;;11.50;;
15712;SDS011;7957;51.608;6.916;2023-03-21T03:48:51;17.17;;;12.27;;
15712;SDS011;7957;51.608;6.916;2023-03-21T03:51:23;17.93;;;12.73;;
15712;SDS011;7957;51.608;6.916;2023-03-21T03:53:54;17.63;;;12.73;;
15712;SDS011;7957;51.608;6.916;2023-03-21T03:56:23;16.87;;;12.03;;
15712;SDS011;7957;51.608;6.916;2023-03-21T03:58:51;17.93;;;12.50;;
15712;SDS011;7957;51.608;6.916;2023-03-21T04:01:18;16.27;;;12.23;;
15712;SDS011;7957;51.608;6.916;2023-03-21T04:03:46;16.83;;;12.93;;
15712;SDS011;7957;51.608;6.916;2023-03-21T04:06:14;16.93;;;12.93;;
15712;SDS011;7957;51.608;6.916;2023-03-21T04:08:41;15.80;;;12.50;;
15712;SDS011;7957;51.608;6.916;2023-03-21T04:11:11;15.70;;;12.80;;
15712;SDS011;7957;51.608;6.916;2023-03-21T04:13:40;16.80;;;13.07;;
15712;SDS011;7957;51.608;6.916;2023-03-21T04:16:07;18.10;;;13.37;;
15712;SDS011;7957;51.608;6.916;2023-03-21T04:18:35;20.43;;;13.10;;
15712;SDS011;7957;51.608;6.916;2023-03-21T04:21:05;16.97;;;12.87;;
15712;SDS011;7957;51.608;6.916;2023-03-21T04:23:33;15.63;;;12.80;;
15712;SDS011;7957;51.608;6.916;2023-03-21T04:26:01;15.97;;;12.37;;
15712;SDS011;7957;51.608;6.916;2023-03-21T04:28:31;15.67;;;12.60;;
15712;SDS011;7957;51.608;6.916;2023-03-21T04:31:00;17.70;;;12.50;;
15712;SDS011;7957;51.608;6.916;2023-03-21T04:33:27;16.20;;;12.80;;
15712;SDS011;7957;51.608;6.916;2023-03-21T04:35:54;15.23;;;12.07;;
15712;SDS011;7957;51.608;6.916;2023-03-21T04:38:23;17.67;;;12.20;;
15712;SDS011;7957;51.608;6.916;2023-03-21T04:40:54;19.33;;;12.90;;
15712;SDS011;7957;51.608;6.916;2023-03-21T04:43:21;14.27;;;11.73;;
15712;SDS011;7957;51.608;6.916;2023-03-21T04:45:53;16.83;;;11.70;;
15712;SDS011;7957;51.608;6.916;2023-03-21T04:48:20;14.80;;;12.47;;
15712;SDS011;7957;51.608;6.916;2023-03-21T04:50:48;14.33;;;11.77;;
15712;SDS011;7957;51.608;6.916;2023-03-21T04:53:15;13.87;;;11.40;;
15712;SDS011;7957;51.608;6.916;2023-03-21T04:55:43;17.07;;;11.77;;
15712;SDS011;7957;51.608;6.916;2023-03-21T04:58:10;16.50;;;11.33;;
15712;SDS011;7957;51.608;6.916;2023-03-21T05:00:37;14.27;;;11.50;;
15712;SDS011;7957;51.608;6.916;2023-03-21T05:03:06;16.13;;;11.77;;
15712;SDS011;7957;51.608;6.916;2023-03-21T05:05:34;18.97;;;11.63;;
15712;SDS011;7957;51.608;6.916;2023-03-21T05:08:02;14.73;;;11.50;;
15712;SDS011;7957;51.608;6.916;2023-03-21T05:10:30;16.87;;;11.97;;
15712;SDS011;7957;51.608;6.916;2023-03-21T05:12:57;18.93;;;12.17;;
15712;SDS011;7957;51.608;6.916;2023-03-21T05:15:24;15.27;;;11.70;;
15712;SDS011;7957;51.608;6.916;2023-03-21T05:17:51;17.20;;;11.63;;
15712;SDS011;7957;51.608;6.916;2023-03-21T05:20:20;18.63;;;12.07;;
15712;SDS011;7957;51.608;6.916;2023-03-21T05:22:47;14.97;;;11.73;;
15712;SDS011;7957;51.608;6.916;2023-03-21T05:25:16;15.53;;;11.30;;
15712;SDS011;7957;51.608;6.916;2023-03-21T05:27:59;17.03;;;11.67;;
15712;SDS011;7957;51.608;6.916;2023-03-21T05:30:48;15.47;;;11.40;;
15712;SDS011;7957;51.608;6.916;2023-03-21T05:33:55;15.93;;;11.20;;
15712;SDS011;7957;51.608;6.916;2023-03-21T05:36:23;15.53;;;11.23;;
15712;SDS011;7957;51.608;6.916;2023-03-21T05:39:16;15.40;;;11.50;;
15712;SDS011;7957;51.608;6.916;2023-03-21T05:42:06;15.57;;;11.70;;
15712;SDS011;7957;51.608;6.916;2023-03-21T05:47:47;18.60;;;11.63;;
15712;SDS011;7957;51.608;6.916;2023-03-21T05:50:48;14.27;;;10.20;;
15712;SDS011;7957;51.608;6.916;2023-03-21T05:53:32;14.53;;;11.23;;
15712;SDS011;7957;51.608;6.916;2023-03-21T05:56:29;13.00;;;10.57;;
15712;SDS011;7957;51.608;6.916;2023-03-21T05:58:56;14.73;;;11.57;;
15712;SDS011;7957;51.608;6.916;2023-03-21T06:01:22;17.53;;;11.03;;
15712;SDS011;7957;51.608;6.916;2023-03-21T06:03:49;13.60;;;10.37;;
15712;SDS011;7957;51.608;6.916;2023-03-21T06:06:16;16.97;;;10.67;;
15712;SDS011;7957;51.608;6.916;2023-03-21T06:08:45;15.60;;;10.93;;
15712;SDS011;7957;51.608;6.916;2023-03-21T06:11:18;16.67;;;10.93;;
15712;SDS011;7957;51.608;6.916;2023-03-21T06:13:48;14.67;;;11.67;;
15712;SDS011;7957;51.608;6.916;2023-03-21T06:16:15;15.20;;;11.03;;
15712;SDS011;7957;51.608;6.916;2023-03-21T06:18:42;12.93;;;9.80;;
15712;SDS011;7957;51.608;6.916;2023-03-21T06:21:09;14.60;;;10.70;;
15712;SDS011;7957;51.608;6.916;2023-03-21T06:23:36;15.43;;;10.63;;
15712;SDS011;7957;51.608;6.916;2023-03-21T06:26:05;14.57;;;10.67;;
15712;SDS011;7957;51.608;6.916;2023-03-21T06:28:33;17.13;;;10.73;;
15712;SDS011;7957;51.608;6.916;2023-03-21T06:31:00;13.97;;;9.87;;
15712;SDS011;7957;51.608;6.916;2023-03-21T06:33:27;15.20;;;10.60;;
15712;SDS011;7957;51.608;6.916;2023-03-21T06:35:54;12.80;;;10.00;;
15712;SDS011;7957;51.608;6.916;2023-03-21T06:38:22;13.70;;;10.33;;
15712;SDS011;7957;51.608;6.916;2023-03-21T06:40:50;15.97;;;10.43;;
15712;SDS011;7957;51.608;6.916;2023-03-21T06:43:19;15.10;;;10.93;;
15712;SDS011;7957;51.608;6.916;2023-03-21T06:45:45;14.47;;;10.70;;
15712;SDS011;7957;51.608;6.916;2023-03-21T06:48:12;14.67;;;9.70;;
15712;SDS011;7957;51.608;6.916;2023-03-21T06:50:39;13.30;;;10.50;;
15712;SDS011;7957;51.608;6.916;2023-03-21T06:53:07;12.93;;;10.07;;
15712;SDS011;7957;51.608;6.916;2023-03-21T06:55:34;16.10;;;11.10;;
15712;SDS011;7957;51.608;6.916;2023-03-21T06:58:00;16.97;;;10.83;;
15712;SDS011;7957;51.608;6.916;2023-03-21T07:00:29;16.73;;;11.07;;
15712;SDS011;7957;51.608;6.916;2023-03-21T07:02:56;15.37;;;10.87;;
15712;SDS011;7957;51.608;6.916;2023-03-21T07:05:24;16.57;;;10.53;;
15712;SDS011;7957;51.608;6.916;2023-03-21T07:07:51;13.20;;;10.57;;
15712;SDS011;7957;51.608;6.916;2023-03-21T07:10:18;15.70;;;10.57;;
15712;SDS011;7957;51.608;6.916;2023-03-21T07:12:45;14.77;;;10.80;;
15712;SDS011;7957;51.608;6.916;2023-03-21T07:15:12;19.37;;;10.87;;
15712;SDS011;7957;51.608;6.916;2023-03-21T07:17:40;14.03;;;10.63;;
15712;SDS011;7957;51.608;6.916;2023-03-21T07:20:08;18.60;;;11.23;;
15712;SDS011;7957;51.608;6.916;2023-03-21T07:22:36;16.73;;;11.13;;
15712;SDS011;7957;51.608;6.916;2023-03-21T07:25:04;17.43;;;11.67;;
15712;SDS011;7957;51.608;6.916;2023-03-21T07:27:32;17.53;;;10.67;;
15712;SDS011;7957;51.608;6.916;2023-03-21T07:30:00;16.33;;;11.60;;
15712;SDS011;7957;51.608;6.916;2023-03-21T07:32:30;20.47;;;11.33;;
15712;SDS011;7957;51.608;6.916;2023-03-21T07:34:59;14.93;;;10.57;;
15712;SDS011;7957;51.608;6.916;2023-03-21T07:37:26;17.40;;;10.77;;
15712;SDS011;7957;51.608;6.916;2023-03-21T07:39:53;16.73;;;11.07;;
15712;SDS011;7957;51.608;6.916;2023-03-21T07:42:20;18.87;;;11.27;;
15712;SDS011;7957;51.608;6.916;2023-03-21T07:44:47;16.67;;;10.60;;
15712;SDS011;7957;51.608;6.916;2023-03-21T07:47:14;15.80;;;10.43;;
15712;SDS011;7957;51.608;6.916;2023-03-21T07:49:41;15.90;;;10.40;;
15712;SDS011;7957;51.608;6.916;2023-03-21T07:52:09;18.97;;;10.87;;
15712;SDS011;7957;51.608;6.916;2023-03-21T07:54:37;16.23;;;10.53;;
15712;SDS011;7957;51.608;6.916;2023-03-21T07:57:03;16.87;;;10.50;;
15712;SDS011;7957;51.608;6.916;2023-03-21T07:59:31;18.30;;;10.73;;
15712;SDS011;7957;51.608;6.916;2023-03-21T08:01:58;18.40;;;10.50;;
15712;SDS011;7957;51.608;6.916;2023-03-21T08:04:25;17.87;;;10.70;;
15712;SDS011;7957;51.608;6.916;2023-03-21T08:06:52;17.13;;;10.57;;
15712;SDS011;7957;51.608;6.916;2023-03-21T08:09:20;14.93;;;10.37;;
15712;SDS011;7957;51.608;6.916;2023-03-21T08:11:47;19.47;;;11.03;;
15712;SDS011;7957;51.608;6.916;2023-03-21T08:14:14;19.60;;;10.67;;
15712;SDS011;7957;51.608;6.916;2023-03-21T08:16:41;18.27;;;10.37;;
15712;SDS011;7957;51.608;6.916;2023-03-21T08:19:07;16.87;;;9.63;;
15712;SDS011;7957;51.608;6.916;2023-03-21T08:21:34;16.17;;;10.30;;
15712;SDS011;7957;51.608;6.916;2023-03-21T08:24:03;17.03;;;9.60;;
15712;SDS011;7957;51.608;6.916;2023-03-21T08:26:32;15.80;;;9.27;;
15712;SDS011;7957;51.608;6.916;2023-03-21T08:28:59;15.63;;;9.67;;
15712;SDS011;7957;51.608;6.916;2023-03-21T08:31:26;15.80;;;9.63;;
15712;SDS011;7957;51.608;6.916;2023-03-21T08:33:53;14.87;;;9.13;;
15712;SDS011;7957;51.608;6.916;2023-03-21T08:36:20;14.57;;;9.17;;
15712;SDS011;7957;51.608;6.916;2023-03-21T08:38:48;14.23;;;9.07;;
15712;SDS011;7957;51.608;6.916;2023-03-21T08:41:20;13.90;;;9.33;;
15712;SDS011;7957;51.608;6.916;2023-03-21T08:43:50;14.30;;;9.30;;
15712;SDS011;7957;51.608;6.916;2023-03-21T08:46:17;15.13;;;9.17;;
15712;SDS011;7957;51.608;6.916;2023-03-21T08:48:43;13.53;;;8.87;;
15712;SDS011;7957;51.608;6.916;2023-03-21T08:51:10;17.73;;;9.53;;
15712;SDS011;7957;51.608;6.916;2023-03-21T08:53:37;13.30;;;8.73;;
15712;SDS011;7957;51.608;6.916;2023-03-21T08:56:06;18.23;;;9.67;;
15712;SDS011;7957;51.608;6.916;2023-03-21T08:58:33;13.77;;;9.50;;
15712;SDS011;7957;51.608;6.916;2023-03-21T09:01:02;13.20;;;8.87;;
15712;SDS011;7957;51.608;6.916;2023-03-21T09:03:29;13.13;;;8.50;;
15712;SDS011;7957;51.608;6.916;2023-03-21T09:05:56;13.77;;;8.70;;
15712;SDS011;7957;51.608;6.916;2023-03-21T09:08:23;15.70;;;9.13;;
15712;SDS011;7957;51.608;6.916;2023-03-21T09:10:51;13.97;;;8.60;;
15712;SDS011;7957;51.608;6.916;2023-03-21T09:13:19;12.73;;;8.30;;
15712;SDS011;7957;51.608;6.916;2023-03-21T09:15:46;16.53;;;8.57;;
15712;SDS011;7957;51.608;6.916;2023-03-21T09:18:14;16.37;;;9.33;;
15712;SDS011;7957;51.608;6.916;2023-03-21T09:20:42;12.40;;;8.07;;
15712;SDS011;7957;51.608;6.916;2023-03-21T09:23:11;13.87;;;9.20;;
15712;SDS011;7957;51.608;6.916;2023-03-21T09:25:39;14.00;;;9.07;;
15712;SDS011;7957;51.608;6.916;2023-03-21T09:28:06;15.97;;;9.00;;
15712;SDS011;7957;51.608;6.916;2023-03-21T09:30:34;14.50;;;8.50;;
15712;SDS011;7957;51.608;6.916;2023-03-21T09:33:03;13.10;;;8.30;;
15712;SDS011;7957;51.608;6.916;2023-03-21T09:35:38;13.63;;;8.77;;
15712;SDS011;7957;51.608;6.916;2023-03-21T09:38:05;12.60;;;8.43;;
15712;SDS011;7957;51.608;6.916;2023-03-21T09:40:45;13.70;;;8.57;;
15712;SDS011;7957;51.608;6.916;2023-03-21T09:43:25;14.07;;;8.17;;
15712;SDS011;7957;51.608;6.916;2023-03-21T09:46:03;12.57;;;8.40;;
15712;SDS011;7957;51.608;6.916;2023-03-21T09:48:39;12.30;;;7.60;;
15712;SDS011;7957;51.608;6.916;2023-03-21T09:51:13;13.20;;;8.33;;
15712;SDS011;7957;51.608;6.916;2023-03-21T09:53:43;11.03;;;7.10;;
15712;SDS011;7957;51.608;6.916;2023-03-21T09:56:14;13.00;;;8.23;;
15712;SDS011;7957;51.608;6.916;2023-03-21T09:58:42;15.97;;;9.03;;
15712;SDS011;7957;51.608;6.916;2023-03-21T10:01:11;14.17;;;8.37;;
15712;SDS011;7957;51.608;6.916;2023-03-21T10:03:46;12.33;;;8.40;;
15712;SDS011;7957;51.608;6.916;2023-03-21T10:06:15;12.77;;;8.33;;
15712;SDS011;7957;51.608;6.916;2023-03-21T10:08:44;12.60;;;8.73;;
15712;SDS011;7957;51.608;6.916;2023-03-21T10:11:13;12.97;;;7.87;;
15712;SDS011;7957;51.608;6.916;2023-03-21T10:13:45;15.30;;;8.57;;
15712;SDS011;7957;51.608;6.916;2023-03-21T10:16:18;14.97;;;9.20;;
15712;SDS011;7957;51.608;6.916;2023-03-21T10:18:50;12.53;;;8.10;;
15712;SDS011;7957;51.608;6.916;2023-03-21T10:21:21;12.07;;;8.47;;
15712;SDS011;7957;51.608;6.916;2023-03-21T10:23:50;12.23;;;8.33;;
15712;SDS011;7957;51.608;6.916;2023-03-21T10:26:18;11.27;;;7.60;;
15712;SDS011;7957;51.608;6.916;2023-03-21T10:28:47;16.13;;;8.43;;
15712;SDS011;7957;51.608;6.916;2023-03-21T10:31:15;17.27;;;8.77;;
15712;SDS011;7957;51.608;6.916;2023-03-21T10:33:45;13.90;;;9.03;;
15712;SDS011;7957;51.608;6.916;2023-03-21T10:36:15;12.90;;;8.90;;
15712;SDS011;7957;51.608;6.916;2023-03-21T10:38:48;13.67;;;8.83;;
15712;SDS011;7957;51.608;6.916;2023-03-21T10:41:17;15.37;;;9.47;;
15712;SDS011;7957;51.608;6.916;2023-03-21T10:43:45;14.90;;;9.07;;
15712;SDS011;7957;51.608;6.916;2023-03-21T10:46:15;16.33;;;9.50;;
15712;SDS011;7957;51.608;6.916;2023-03-21T10:48:48;11.63;;;9.00;;
15712;SDS011;7957;51.608;6.916;2023-03-21T10:51:18;14.73;;;9.23;;
15712;SDS011;7957;51.608;6.916;2023-03-21T10:53:50;11.57;;;8.40;;
15712;SDS011;7957;51.608;6.916;2023-03-21T10:56:18;18.40;;;9.23;;
15712;SDS011;7957;51.608;6.916;2023-03-21T10:58:49;13.33;;;8.80;;
15712;SDS011;7957;51.608;6.916;2023-03-21T11:01:22;13.17;;;9.03;;
15712;SDS011;7957;51.608;6.916;2023-03-21T11:03:54;13.50;;;8.67;;
15712;SDS011;7957;51.608;6.916;2023-03-21T11:06:25;14.83;;;9.60;;
15712;SDS011;7957;51.608;6.916;2023-03-21T11:08:58;15.03;;;9.27;;
15712;SDS011;7957;51.608;6.916;2023-03-21T11:11:32;14.30;;;9.57;;
15712;SDS011;7957;51.608;6.916;2023-03-21T11:14:00;12.63;;;9.50;;
15712;SDS011;7957;51.608;6.916;2023-03-21T11:16:34;13.17;;;8.90;;
15712;SDS011;7957;51.608;6.916;2023-03-21T11:19:11;17.97;;;9.77;;
15712;SDS011;7957;51.608;6.916;2023-03-21T11:21:39;14.23;;;9.03;;
15712;SDS011;7957;51.608;6.916;2023-03-21T11:24:11;13.67;;;9.67;;
15712;SDS011;7957;51.608;6.916;2023-03-21T11:26:40;13.80;;;9.43;;
15712;SDS011;7957;51.608;6.916;2023-03-21T11:29:26;13.83;;;9.20;;
15712;SDS011;7957;51.608;6.916;2023-03-21T11:31:56;11.47;;;8.30;;
15712;SDS011;7957;51.608;6.916;2023-03-21T11:34:27;11.77;;;8.83;;
15712;SDS011;7957;51.608;6.916;2023-03-21T11:36:58;14.50;;;8.87;;
15712;SDS011;7957;51.608;6.916;2023-03-21T11:39:29;13.37;;;8.83;;
15712;SDS011;7957;51.608;6.916;2023-03-21T11:41:57;12.03;;;8.17;;
15712;SDS011;7957;51.608;6.916;2023-03-21T11:44:29;13.77;;;8.27;;
15712;SDS011;7957;51.608;6.916;2023-03-21T11:46:58;10.70;;;8.10;;
15712;SDS011;7957;51.608;6.916;2023-03-21T11:49:25;13.47;;;8.57;;
15712;SDS011;7957;51.608;6.916;2023-03-21T11:51:57;11.47;;;7.97;;
15712;SDS011;7957;51.608;6.916;2023-03-21T11:54:35;13.33;;;8.40;;
15712;SDS011;7957;51.608;6.916;2023-03-21T11:57:12;14.17;;;8.33;;
15712;SDS011;7957;51.608;6.916;2023-03-21T11:59:45;13.30;;;8.37;;
15712;SDS011;7957;51.608;6.916;2023-03-21T12:02:25;10.93;;;7.53;;
15712;SDS011;7957;51.608;6.916;2023-03-21T12:05:07;12.67;;;7.97;;
15712;SDS011;7957;51.608;6.916;2023-03-21T12:07:46;10.63;;;7.60;;
15712;SDS011;7957;51.608;6.916;2023-03-21T12:10:29;11.53;;;7.77;;
15712;SDS011;7957;51.608;6.916;2023-03-21T12:13:01;11.03;;;7.60;;
15712;SDS011;7957;51.608;6.916;2023-03-21T12:15:35;13.40;;;7.57;;
15712;SDS011;7957;51.608;6.916;2023-03-21T12:18:09;11.70;;;8.00;;
15712;SDS011;7957;51.608;6.916;2023-03-21T12:20:46;12.87;;;8.40;;
15712;SDS011;7957;51.608;6.916;2023-03-21T12:23:23;11.13;;;7.77;;
15712;SDS011;7957;51.608;6.916;2023-03-21T12:26:09;12.37;;;7.87;;
15712;SDS011;7957;51.608;6.916;2023-03-21T12:28:46;11.43;;;7.13;;
15712;SDS011;7957;51.608;6.916;2023-03-21T12:31:25;11.13;;;7.80;;
15712;SDS011;7957;51.608;6.916;2023-03-21T12:34:01;11.87;;;7.33;;
15712;SDS011;7957;51.608;6.916;2023-03-21T12:36:38;12.27;;;7.13;;
15712;SDS011;7957;51.608;6.916;2023-03-21T12:39:16;9.77;;;7.20;;
15712;SDS011;7957;51.608;6.916;2023-03-21T12:41:52;9.40;;;7.07;;
15712;SDS011;7957;51.608;6.916;2023-03-21T12:44:32;13.47;;;7.73;;
15712;SDS011;7957;51.608;6.916;2023-03-21T12:47:03;10.07;;;7.03;;
15712;SDS011;7957;51.608;6.916;2023-03-21T12:49:36;9.97;;;7.17;;
15712;SDS011;7957;51.608;6.916;2023-03-21T12:52:10;9.83;;;6.37;;
15712;SDS011;7957;51.608;6.916;2023-03-21T12:54:42;9.03;;;6.20;;
15712;SDS011;7957;51.608;6.916;2023-03-21T12:57:16;9.57;;;6.43;;
15712;SDS011;7957;51.608;6.916;2023-03-21T12:59:46;9.53;;;6.50;;
15712;SDS011;7957;51.608;6.916;2023-03-21T13:02:19;8.13;;;6.17;;
15712;SDS011;7957;51.608;6.916;2023-03-21T13:04:52;8.67;;;5.80;;
15712;SDS011;7957;51.608;6.916;2023-03-21T13:07:28;8.03;;;5.93;;
15712;SDS011;7957;51.608;6.916;2023-03-21T13:10:00;9.10;;;6.23;;
15712;SDS011;7957;51.608;6.916;2023-03-21T13:15:31;11.93;;;6.47;;
15712;SDS011;7957;51.608;6.916;2023-03-21T13:18:13;8.47;;;5.73;;
15712;SDS011;7957;51.608;6.916;2023-03-21T13:20:46;11.30;;;6.07;;
15712;SDS011;7957;51.608;6.916;2023-03-21T13:23:16;10.00;;;6.10;;
15712;SDS011;7957;51.608;6.916;2023-03-21T13:25:44;11.63;;;6.10;;
15712;SDS011;7957;51.608;6.916;2023-03-21T13:28:17;13.85;;;6.20;;
15712;SDS011;7957;51.608;6.916;2023-03-21T13:30:45;9.47;;;5.30;;
15712;SDS011;7957;51.608;6.916;2023-03-21T13:33:14;12.57;;;6.33;;
15712;SDS011;7957;51.608;6.916;2023-03-21T13:35:45;10.67;;;5.80;;
15712;SDS011;7957;51.608;6.916;2023-03-21T13:38:21;10.53;;;5.83;;
15712;SDS011;7957;51.608;6.916;2023-03-21T13:40:55;10.60;;;6.27;;
15712;SDS011;7957;51.608;6.916;2023-03-21T13:43:33;11.07;;;6.30;;
15712;SDS011;7957;51.608;6.916;2023-03-21T13:46:08;9.93;;;5.70;;
15712;SDS011;7957;51.608;6.916;2023-03-21T13:48:42;11.07;;;6.30;;
15712;SDS011;7957;51.608;6.916;2023-03-21T13:51:21;10.23;;;6.27;;
15712;SDS011;7957;51.608;6.916;2023-03-21T13:54:15;8.83;;;5.63;;
15712;SDS011;7957;51.608;6.916;2023-03-21T13:56:47;7.13;;;5.60;;
15712;SDS011;7957;51.608;6.916;2023-03-21T13:59:17;7.60;;;5.63;;
15712;SDS011;7957;51.608;6.916;2023-03-21T14:02:00;9.63;;;5.47;;
15712;SDS011;7957;51.608;6.916;2023-03-21T14:04:45;185.52;;;15.02;;
15712;SDS011;7957;51.608;6.916;2023-03-21T14:07:12;176.87;;;13.27;;
15712;SDS011;7957;51.608;6.916;2023-03-21T14:09:47;122.50;;;12.03;;
15712;SDS011;7957;51.608;6.916;2023-03-21T14:12:17;69.67;;;10.27;;
15712;SDS011;7957;51.608;6.916;2023-03-21T14:14:49;84.40;;;10.50;;
15712;SDS011;7957;51.608;6.916;2023-03-21T14:17:21;51.80;;;9.07;;
15712;SDS011;7957;51.608;6.916;2023-03-21T14:19:51;55.27;;;9.37;;
15712;SDS011;7957;51.608;6.916;2023-03-21T14:22:18;47.93;;;8.73;;
15712;SDS011;7957;51.608;6.916;2023-03-21T14:24:46;34.80;;;7.53;;
15712;SDS011;7957;51.608;6.916;2023-03-21T14:27:13;30.47;;;6.83;;
15712;SDS011;7957;51.608;6.916;2023-03-21T14:29:40;21.87;;;7.03;;
15712;SDS011;7957;51.608;6.916;2023-03-21T14:32:14;29.40;;;7.33;;
15712;SDS011;7957;51.608;6.916;2023-03-21T14:34:47;23.23;;;6.60;;
15712;SDS011;7957;51.608;6.916;2023-03-21T14:37:24;17.50;;;6.53;;
15712;SDS011;7957;51.608;6.916;2023-03-21T14:39:55;17.97;;;5.80;;
15712;SDS011;7957;51.608;6.916;2023-03-21T14:42:23;16.83;;;6.10;;
15712;SDS011;7957;51.608;6.916;2023-03-21T14:44:51;14.23;;;6.43;;
15712;SDS011;7957;51.608;6.916;2023-03-21T14:47:20;13.53;;;5.70;;
15712;SDS011;7957;51.608;6.916;2023-03-21T14:49:48;14.50;;;5.30;;
15712;SDS011;7957;51.608;6.916;2023-03-21T14:52:16;13.73;;;5.73;;
15712;SDS011;7957;51.608;6.916;2023-03-21T14:54:46;11.17;;;6.17;;
15712;SDS011;7957;51.608;6.916;2023-03-21T14:57:18;11.00;;;5.70;;
15712;SDS011;7957;51.608;6.916;2023-03-21T14:59:46;10.90;;;5.50;;
15712;SDS011;7957;51.608;6.916;2023-03-21T15:02:17;12.00;;;6.40;;
15712;SDS011;7957;51.608;6.916;2023-03-21T15:04:49;10.93;;;6.17;;
15712;SDS011;7957;51.608;6.916;2023-03-21T15:07:22;11.50;;;5.97;;
15712;SDS011;7957;51.608;6.916;2023-03-21T15:09:52;9.00;;;5.83;;
15712;SDS011;7957;51.608;6.916;2023-03-21T15:12:22;8.20;;;5.10;;
15712;SDS011;7957;51.608;6.916;2023-03-21T15:14:49;11.17;;;5.93;;
15712;SDS011;7957;51.608;6.916;2023-03-21T15:17:16;8.83;;;5.20;;
15712;SDS011;7957;51.608;6.916;2023-03-21T15:19:46;9.53;;;5.67;;
15712;SDS011;7957;51.608;6.916;2023-03-21T15:22:14;8.83;;;5.97;;
15712;SDS011;7957;51.608;6.916;2023-03-21T15:24:46;9.13;;;5.70;;